createdAt,value
2019-05-15T00:02:04.247Z,43.04
2019-05-15T00:04:35.739Z,44.00
2019-05-15T00:07:08.904Z,44.00
2019-05-15T00:09:41.932Z,43.92
2019-05-15T00:12:14.261Z,44.04
2019-05-15T00:14:48.301Z,44.26
2019-05-15T00:17:19.738Z,44.25
2019-05-15T00:19:51.834Z,44.28
2019-05-15T00:22:23.439Z,43.91
2019-05-15T00:24:58.059Z,43.53
2019-05-15T00:27:29.706Z,43.47
2019-05-15T00:30:01.482Z,41.61
2019-05-15T00:32:33.220Z,41.61
2019-05-15T00:35:05.513Z,42.57
2019-05-15T00:37:38.714Z,43.65
2019-05-15T00:40:11.517Z,42.90
2019-05-15T00:42:43.187Z,43.21
2019-05-15T00:45:15.719Z,43.17
2019-05-15T00:47:48.665Z,43.17
2019-05-15T00:50:20.442Z,43.88
2019-05-15T00:52:52.278Z,43.88
2019-05-15T00:55:23.912Z,43.57
2019-05-15T00:57:55.600Z,43.57
2019-05-15T01:00:41.447Z,44.24
2019-05-15T01:03:13.741Z,44.24
2019-05-15T01:05:45.332Z,43.78
2019-05-15T01:08:18.912Z,43.94
2019-05-15T01:10:50.470Z,43.71
2019-05-15T01:13:22.598Z,43.80
2019-05-15T01:15:54.246Z,44.64
2019-05-15T01:18:25.674Z,43.91
2019-05-15T01:21:00.009Z,43.91
2019-05-15T01:23:31.776Z,43.80
2019-05-15T01:26:03.323Z,45.02
2019-05-15T01:28:35.001Z,46.02
2019-05-15T01:31:08.544Z,45.66
2019-05-15T01:33:40.107Z,45.36
2019-05-15T01:36:11.967Z,45.36
2019-05-15T01:38:43.426Z,44.44
2019-05-15T01:41:15.142Z,44.21
2019-05-15T01:43:48.936Z,44.02
2019-05-15T01:46:20.814Z,44.02
2019-05-15T01:48:53.390Z,42.47
2019-05-15T01:51:25.192Z,41.73
2019-05-15T01:53:58.382Z,42.00
2019-05-15T01:56:30.233Z,42.00
2019-05-15T01:59:01.831Z,41.97
2019-05-15T02:01:34.765Z,42.07
2019-05-15T02:04:08.276Z,39.89
2019-05-15T02:06:39.857Z,39.36
2019-05-15T02:09:11.547Z,39.36
2019-05-15T02:11:43.281Z,40.44
2019-05-15T02:14:15.576Z,39.14
2019-05-15T02:16:48.396Z,38.08
2019-05-15T02:19:20.375Z,38.08
2019-05-15T02:21:51.924Z,38.01
2019-05-15T02:24:23.458Z,37.36
2019-05-15T02:26:54.927Z,37.36
2019-05-15T02:29:28.567Z,36.96
2019-05-15T02:32:00.718Z,36.23
2019-05-15T02:34:32.621Z,35.27
2019-05-15T02:37:04.442Z,35.27
2019-05-15T02:39:38.918Z,35.06
2019-05-15T02:42:10.053Z,34.87
2019-05-15T02:44:42.406Z,34.87
2019-05-15T02:47:13.880Z,34.83
2019-05-15T02:49:48.407Z,35.11
2019-05-15T02:52:19.938Z,34.78
2019-05-15T02:54:52.161Z,34.78
2019-05-15T02:57:23.562Z,34.41
2019-05-15T02:59:55.350Z,34.02
2019-05-15T03:02:28.674Z,34.76
2019-05-15T03:05:01.557Z,34.35
2019-05-15T03:07:33.253Z,34.35
2019-05-15T03:10:04.876Z,34.52
2019-05-15T03:12:40.168Z,35.40
2019-05-15T03:15:10.124Z,35.40
2019-05-15T03:17:41.766Z,34.92
2019-05-15T03:20:13.673Z,33.29
2019-05-15T03:22:45.454Z,33.39
2019-05-15T03:25:19.167Z,33.39
2019-05-15T03:27:50.990Z,33.80
2019-05-15T03:30:31.860Z,33.60
2019-05-15T03:33:07.681Z,33.02
2019-05-15T03:35:42.744Z,33.09
2019-05-15T03:38:10.958Z,33.09
2019-05-15T03:40:42.728Z,33.10
2019-05-15T03:43:14.371Z,32.57
2019-05-15T03:45:49.348Z,32.96
2019-05-15T03:48:20.077Z,33.14
2019-05-15T03:50:51.811Z,32.81
2019-05-15T03:53:23.732Z,32.78
2019-05-15T03:55:58.701Z,32.03
2019-05-15T03:58:29.337Z,31.81
2019-05-15T04:01:00.949Z,32.01
2019-05-15T04:03:32.549Z,31.78
2019-05-15T04:06:04.598Z,31.54
2019-05-15T04:08:38.955Z,31.54
2019-05-15T04:11:10.996Z,31.44
2019-05-15T04:13:42.802Z,29.48
2019-05-15T04:16:15.028Z,29.48
2019-05-15T04:18:49.038Z,29.85
2019-05-15T04:21:20.407Z,30.27
2019-05-15T04:23:53.413Z,30.27
2019-05-15T04:26:28.650Z,30.84
2019-05-15T04:29:01.521Z,30.86
2019-05-15T04:31:50.782Z,31.17
2019-05-15T04:34:09.192Z,29.95
2019-05-15T04:36:44.241Z,29.91
2019-05-15T04:39:13.638Z,30.42
2019-05-15T04:41:45.318Z,30.42
2019-05-15T04:44:19.313Z,30.78
2019-05-15T04:46:50.838Z,36.34
2019-05-15T04:49:22.374Z,31.88
2019-05-15T04:51:54.027Z,31.88
2019-05-15T04:54:25.540Z,31.33
2019-05-15T04:56:59.398Z,31.33
2019-05-15T04:59:30.553Z,31.46
2019-05-15T05:02:16.219Z,32.07
2019-05-15T05:04:38.876Z,32.07
2019-05-15T05:07:10.989Z,30.47
2019-05-15T05:09:43.211Z,31.60
2019-05-15T05:12:14.808Z,30.59
2019-05-15T05:14:48.398Z,30.59
2019-05-15T05:17:20.202Z,30.80
2019-05-15T05:19:52.156Z,30.96
2019-05-15T05:22:24.178Z,30.90
2019-05-15T05:24:58.365Z,30.71
2019-05-15T05:27:29.491Z,29.61
2019-05-15T05:30:00.961Z,29.61
2019-05-15T05:32:35.251Z,32.12
2019-05-15T05:35:08.194Z,32.12
2019-05-15T05:37:39.768Z,30.95
2019-05-15T05:40:11.601Z,28.94
2019-05-15T05:42:43.137Z,28.44
2019-05-15T05:45:15.036Z,28.44
2019-05-15T05:47:48.593Z,28.45
2019-05-15T05:50:38.456Z,29.01
2019-05-15T05:53:09.559Z,29.01
2019-05-15T05:55:41.078Z,29.37
2019-05-15T05:58:12.712Z,33.86
2019-05-15T06:00:48.575Z,33.86
2019-05-15T06:03:19.969Z,32.64
2019-05-15T06:05:51.591Z,33.89
2019-05-15T06:08:23.081Z,34.40
2019-05-15T06:10:54.581Z,34.40
2019-05-15T06:13:26.254Z,32.96
2019-05-15T06:15:59.073Z,32.96
2019-05-15T06:18:31.362Z,31.72
2019-05-15T06:21:09.042Z,31.72
2019-05-15T06:23:45.815Z,32.48
2019-05-15T06:26:15.221Z,31.76
2019-05-15T06:28:49.063Z,32.01
2019-05-15T06:31:20.041Z,33.33
2019-05-15T06:33:51.962Z,35.50
2019-05-15T06:36:23.893Z,34.81
2019-05-15T06:38:55.756Z,34.81
2019-05-15T06:41:28.624Z,33.74
2019-05-15T06:44:01.233Z,34.83
2019-05-15T06:46:39.056Z,35.13
2019-05-15T06:49:10.333Z,35.13
2019-05-15T06:51:42.019Z,35.26
2019-05-15T06:54:13.853Z,35.25
2019-05-15T06:56:45.695Z,35.23
2019-05-15T06:59:18.014Z,35.17
2019-05-15T07:01:49.816Z,34.78
2019-05-15T07:04:22.146Z,34.78
2019-05-15T07:06:53.874Z,35.03
2019-05-15T07:09:28.381Z,35.75
2019-05-15T07:11:59.603Z,35.75
2019-05-15T07:14:31.247Z,35.46
2019-05-15T07:17:03.547Z,34.94
2019-05-15T07:19:35.067Z,34.94
2019-05-15T07:22:09.181Z,35.39
2019-05-15T07:24:40.973Z,34.69
2019-05-15T07:27:12.898Z,34.05
2019-05-15T07:29:44.662Z,32.89
2019-05-15T07:32:19.046Z,33.26
2019-05-15T07:34:49.964Z,33.26
2019-05-15T07:37:21.631Z,32.63
2019-05-15T07:39:53.479Z,35.04
2019-05-15T07:42:25.183Z,35.04
2019-05-15T07:45:04.475Z,33.56
2019-05-15T07:47:38.661Z,33.56
2019-05-15T07:50:10.975Z,32.28
2019-05-15T07:52:42.942Z,31.69
2019-05-15T07:55:14.700Z,32.69
2019-05-15T07:57:49.577Z,32.54
2019-05-15T08:00:23.785Z,32.24
2019-05-15T08:02:59.147Z,32.12
2019-05-15T08:05:33.911Z,32.12
2019-05-15T08:08:08.764Z,31.49
2019-05-15T08:10:40.509Z,31.49
2019-05-15T08:13:12.141Z,35.03
2019-05-15T08:15:43.848Z,31.23
2019-05-15T08:18:17.842Z,31.42
2019-05-15T08:20:49.560Z,34.05
2019-05-15T08:23:21.826Z,32.07
2019-05-15T08:25:53.519Z,36.69
2019-05-15T08:28:24.986Z,36.69
2019-05-15T08:30:58.563Z,34.02
2019-05-15T08:33:30.399Z,30.41
2019-05-15T08:36:02.302Z,30.36
2019-05-15T08:38:33.913Z,30.36
2019-05-15T08:41:11.174Z,30.03
2019-05-15T08:43:40.269Z,31.40
2019-05-15T08:46:11.820Z,33.90
2019-05-15T08:48:43.537Z,29.99
2019-05-15T08:51:15.936Z,29.99
2019-05-15T08:53:48.794Z,29.94
2019-05-15T08:56:20.541Z,29.94
2019-05-15T08:58:52.561Z,29.82
2019-05-15T09:01:24.429Z,30.01
2019-05-15T09:03:58.028Z,29.47
2019-05-15T09:06:29.513Z,29.47
2019-05-15T09:09:00.934Z,29.35
2019-05-15T09:11:40.393Z,29.10
2019-05-15T09:14:18.645Z,29.77
2019-05-15T09:16:51.013Z,29.77
2019-05-15T09:19:22.890Z,30.17
2019-05-15T09:21:55.201Z,30.25
2019-05-15T09:24:28.644Z,29.58
2019-05-15T09:27:00.653Z,29.49
2019-05-15T09:29:32.614Z,29.31
2019-05-15T09:32:04.929Z,29.30
2019-05-15T09:34:48.061Z,29.30
2019-05-15T09:37:10.410Z,29.22
2019-05-15T09:39:42.295Z,29.67
2019-05-15T09:42:14.435Z,30.09
2019-05-15T09:44:48.638Z,30.03
2019-05-15T09:47:29.483Z,29.44
2019-05-15T09:50:05.265Z,29.44
2019-05-15T09:52:40.108Z,29.32
2019-05-15T09:55:14.351Z,29.15
2019-05-15T09:57:49.056Z,29.15
2019-05-15T10:00:22.112Z,28.97
2019-05-15T10:03:00.142Z,28.38
2019-05-15T10:05:35.214Z,28.54
2019-05-15T10:08:08.948Z,28.54
2019-05-15T10:10:42.061Z,28.11
2019-05-15T10:13:14.880Z,27.95
2019-05-15T10:15:50.541Z,27.78
2019-05-15T10:18:28.333Z,27.84
2019-05-15T10:21:01.492Z,27.50
2019-05-15T10:23:34.157Z,27.50
2019-05-15T10:26:13.226Z,28.13
2019-05-15T10:28:41.806Z,28.30
2019-05-15T10:31:14.389Z,28.30
2019-05-15T10:33:49.184Z,27.94
2019-05-15T10:36:20.947Z,28.02
2019-05-15T10:38:55.315Z,28.13
2019-05-15T10:41:28.484Z,28.16
2019-05-15T10:44:00.830Z,28.35
2019-05-15T10:46:34.790Z,28.36
2019-05-15T10:49:08.637Z,28.32
2019-05-15T10:51:41.946Z,28.24
2019-05-15T10:54:14.714Z,28.24
2019-05-15T10:56:48.042Z,28.38
2019-05-15T10:59:20.697Z,28.54
2019-05-15T11:01:53.500Z,28.32
2019-05-15T11:04:25.904Z,28.43
2019-05-15T11:06:58.320Z,28.59
2019-05-15T11:09:33.540Z,28.45
2019-05-15T11:12:05.975Z,28.45
2019-05-15T11:14:38.349Z,28.09
2019-05-15T11:17:10.355Z,28.09
2019-05-15T11:19:42.829Z,28.12
2019-05-15T11:22:15.056Z,28.04
2019-05-15T11:24:50.861Z,28.42
2019-05-15T11:27:22.315Z,28.35
2019-05-15T11:29:55.114Z,28.35
2019-05-15T11:32:29.402Z,28.34
2019-05-15T11:35:04.356Z,28.54
2019-05-15T11:37:35.258Z,28.57
2019-05-15T11:40:12.174Z,28.37
2019-05-15T11:42:44.731Z,28.37
2019-05-15T11:45:20.550Z,27.92
2019-05-15T11:48:15.788Z,28.06
2019-05-15T11:53:39.496Z,28.30
2019-05-15T11:56:29.557Z,28.01
2019-05-15T11:59:04.332Z,27.71
2019-05-15T12:01:38.440Z,28.05
2019-05-15T12:04:26.412Z,28.05
2019-05-15T12:06:58.251Z,28.20
2019-05-15T12:09:24.046Z,28.30
2019-05-15T12:11:56.360Z,28.28
2019-05-15T12:14:29.659Z,28.04
2019-05-15T12:17:11.411Z,28.04
2019-05-15T12:19:38.974Z,27.82
2019-05-15T12:22:11.009Z,27.91
2019-05-15T12:24:42.994Z,28.55
2019-05-15T12:27:18.203Z,28.55
2019-05-15T12:29:49.410Z,27.96
2019-05-15T12:34:55.250Z,27.72
2019-05-15T12:37:28.499Z,27.64
2019-05-15T13:00:38.287Z,27.81
2019-05-15T13:03:11.051Z,28.02
2019-05-15T13:05:43.423Z,28.02
2019-05-15T13:08:15.755Z,27.77
2019-05-15T13:10:48.756Z,27.74
2019-05-15T13:13:21.461Z,27.74
2019-05-15T13:15:53.852Z,27.83
2019-05-15T13:18:25.930Z,27.91
2019-05-15T13:20:59.598Z,28.05
2019-05-15T13:23:34.395Z,27.76
2019-05-15T13:26:21.560Z,27.76
2019-05-15T13:28:39.887Z,27.58
2019-05-15T13:31:11.709Z,27.58
2019-05-15T13:33:44.166Z,27.80
2019-05-15T13:36:16.364Z,27.77
2019-05-15T13:38:48.348Z,27.81
2019-05-15T13:41:20.859Z,27.81
2019-05-15T13:43:52.929Z,28.33
2019-05-15T13:46:24.986Z,28.41
2019-05-15T13:48:59.170Z,28.41
2019-05-15T13:51:30.802Z,28.43
2019-05-15T13:54:02.931Z,28.42
2019-05-15T13:56:35.070Z,28.42
2019-05-15T13:59:08.057Z,28.52
2019-05-15T14:01:40.690Z,28.82
2019-05-15T14:04:13.190Z,28.82
2019-05-15T14:06:45.171Z,28.53
2019-05-15T14:09:17.228Z,28.53
2019-05-15T14:11:49.834Z,29.05
2019-05-15T14:14:23.201Z,29.05
2019-05-15T14:16:55.291Z,29.19
2019-05-15T14:19:27.984Z,29.19
2019-05-15T14:22:00.129Z,28.92
2019-05-15T14:24:32.257Z,28.92
2019-05-15T14:27:04.242Z,29.11
2019-05-15T14:29:36.391Z,29.37
2019-05-15T14:32:08.549Z,29.37
2019-05-15T14:34:40.909Z,29.45
2019-05-15T14:37:12.816Z,29.47
2019-05-15T14:39:44.919Z,29.52
2019-05-15T14:42:18.658Z,29.63
2019-05-15T14:44:50.518Z,29.63
2019-05-15T14:47:22.634Z,29.50
2019-05-15T14:49:54.520Z,29.65
2019-05-15T14:52:28.020Z,29.79
2019-05-15T14:54:59.916Z,30.23
2019-05-15T14:57:32.304Z,30.23
2019-05-15T15:00:04.165Z,29.96
2019-05-15T15:02:38.819Z,30.27
2019-05-15T15:05:11.729Z,30.23
2019-05-15T15:07:43.574Z,30.46
2019-05-15T15:10:15.595Z,30.29
2019-05-15T15:12:49.937Z,30.38
2019-05-15T15:15:21.421Z,30.83
2019-05-15T15:17:53.332Z,30.83
2019-05-15T15:20:25.704Z,30.68
2019-05-15T15:22:59.387Z,30.68
2019-05-15T15:25:31.380Z,31.02
2019-05-15T15:28:08.169Z,31.23
2019-05-15T15:30:39.243Z,32.11
2019-05-15T15:33:12.135Z,32.11
2019-05-15T15:35:44.324Z,32.19
2019-05-15T15:38:35.052Z,32.19
2019-05-15T15:40:52.716Z,32.23
2019-05-15T15:43:24.915Z,32.22
2019-05-15T15:45:58.057Z,32.22
2019-05-15T15:48:30.103Z,32.63
2019-05-15T15:51:02.735Z,33.44
2019-05-15T15:53:34.470Z,33.99
2019-05-15T15:56:10.651Z,33.99
2019-05-15T15:58:41.662Z,31.74
2019-05-15T16:01:13.721Z,31.54
2019-05-15T16:03:48.421Z,31.54
2019-05-15T16:06:23.820Z,31.35
2019-05-15T16:08:59.714Z,31.16
2019-05-15T16:11:31.806Z,31.16
2019-05-15T16:14:05.114Z,31.37
2019-05-15T16:16:38.066Z,31.05
2019-05-15T16:19:09.817Z,31.05
2019-05-15T16:21:42.240Z,31.30
2019-05-15T16:24:17.772Z,32.09
2019-05-15T16:26:49.853Z,32.09
2019-05-15T16:29:21.472Z,31.69
2019-05-15T16:31:53.506Z,31.99
2019-05-15T16:34:25.132Z,32.69
2019-05-15T16:36:58.558Z,32.69
2019-05-15T16:39:30.355Z,32.59
2019-05-15T16:42:02.308Z,32.88
2019-05-15T16:44:34.077Z,32.75
2019-05-15T16:47:08.243Z,32.70
2019-05-15T16:49:39.359Z,33.00
2019-05-15T16:52:11.365Z,33.30
2019-05-15T16:54:42.968Z,33.30
2019-05-15T16:57:14.568Z,33.45
2019-05-15T16:59:48.030Z,34.20
2019-05-15T17:02:19.857Z,34.20
2019-05-15T17:04:51.703Z,33.97
2019-05-15T17:07:23.626Z,34.30
2019-05-15T17:09:55.190Z,34.61
2019-05-15T17:12:27.826Z,34.43
2019-05-15T17:14:59.795Z,35.10
2019-05-15T17:17:31.484Z,35.10
2019-05-15T17:20:03.186Z,34.67
2019-05-15T17:22:35.245Z,34.67
2019-05-15T17:25:09.200Z,34.66
2019-05-15T17:27:40.663Z,34.70
2019-05-15T17:30:12.504Z,35.39
2019-05-15T17:32:43.933Z,35.39
2019-05-15T17:35:15.753Z,34.82
2019-05-15T17:37:58.123Z,35.25
2019-05-15T17:40:30.208Z,34.61
2019-05-15T17:43:02.644Z,34.74
2019-05-15T17:45:35.013Z,34.74
2019-05-15T17:48:12.217Z,35.15
2019-05-15T17:50:51.747Z,35.15
2019-05-15T17:53:21.232Z,34.59
2019-05-15T17:55:53.098Z,34.72
2019-05-15T17:58:24.725Z,34.55
2019-05-15T18:00:59.410Z,34.95
2019-05-15T18:03:31.405Z,34.92
2019-05-15T18:06:03.234Z,35.36
2019-05-15T18:08:39.032Z,35.54
2019-05-15T18:11:10.965Z,35.54
2019-05-15T18:13:43.118Z,35.59
2019-05-15T18:16:14.879Z,35.67
2019-05-15T18:18:47.913Z,35.67
2019-05-15T18:21:21.211Z,35.40
2019-05-15T18:23:53.887Z,35.31
2019-05-15T18:26:25.992Z,35.16
2019-05-15T18:28:58.777Z,35.23
2019-05-15T18:31:31.387Z,35.15
2019-05-15T18:34:03.903Z,35.09
2019-05-15T18:36:35.710Z,35.03
2019-05-15T18:39:09.240Z,34.71
2019-05-15T18:41:41.133Z,34.71
2019-05-15T18:44:13.139Z,34.71
2019-05-15T18:46:45.146Z,34.28
2019-05-15T18:49:17.997Z,34.28
2019-05-15T18:51:49.821Z,34.33
2019-05-15T18:54:21.510Z,34.28
2019-05-15T18:56:53.575Z,34.28
2019-05-15T18:59:25.655Z,33.68
2019-05-15T19:01:58.667Z,33.68
2019-05-15T19:04:34.300Z,33.33
2019-05-15T19:07:09.251Z,33.39
2019-05-15T19:09:41.536Z,33.39
2019-05-15T19:12:17.694Z,33.32
2019-05-15T19:14:52.826Z,33.45
2019-05-15T19:17:27.568Z,33.45
2019-05-15T19:19:59.550Z,32.98
2019-05-15T19:22:32.425Z,34.20
2019-05-15T19:25:05.892Z,34.30
2019-05-15T19:27:39.067Z,34.30
2019-05-15T19:30:11.913Z,34.57
2019-05-15T19:32:43.995Z,34.83
2019-05-15T19:35:16.012Z,34.44
2019-05-15T19:37:48.899Z,34.44
2019-05-15T19:40:21.765Z,34.77
2019-05-15T19:42:53.681Z,34.68
2019-05-15T19:45:28.027Z,34.68
2019-05-15T19:47:59.095Z,34.62
2019-05-15T19:50:31.215Z,34.62
2019-05-15T19:53:03.224Z,34.63
2019-05-15T19:55:35.333Z,34.63
2019-05-15T19:58:08.769Z,34.42
2019-05-15T20:00:41.166Z,34.82
2019-05-15T20:03:14.198Z,34.81
2019-05-15T20:05:48.568Z,34.08
2019-05-15T20:08:20.912Z,34.76
2019-05-15T20:10:53.251Z,35.54
2019-05-15T20:13:29.005Z,35.54
2019-05-15T20:16:01.704Z,35.50
2019-05-15T20:18:33.965Z,35.50
2019-05-15T20:21:05.658Z,35.26
2019-05-15T20:23:38.216Z,36.13
2019-05-15T20:26:11.521Z,36.43
2019-05-15T20:28:43.752Z,36.43
2019-05-15T20:31:15.871Z,35.55
2019-05-15T20:33:48.396Z,35.02
2019-05-15T20:36:22.262Z,35.02
2019-05-15T20:38:54.000Z,35.14
2019-05-15T20:41:30.127Z,35.42
2019-05-15T20:44:01.760Z,35.55
2019-05-15T20:46:33.995Z,35.43
2019-05-15T20:49:05.848Z,35.30
2019-05-15T20:51:39.021Z,35.52
2019-05-15T20:54:10.901Z,35.61
2019-05-15T20:56:42.794Z,35.79
2019-05-15T20:59:15.378Z,35.89
2019-05-15T21:01:48.298Z,36.06
2019-05-15T21:04:23.589Z,35.92
2019-05-15T21:06:54.360Z,36.79
2019-05-15T21:09:28.410Z,36.81
2019-05-15T21:11:59.653Z,36.22
2019-05-15T21:14:31.667Z,36.34
2019-05-15T21:17:04.694Z,36.34
2019-05-15T21:19:38.584Z,36.87
2019-05-15T21:22:13.735Z,36.87
2019-05-15T21:24:45.725Z,36.37
2019-05-15T21:27:23.425Z,37.31
2019-05-15T21:29:51.662Z,36.24
2019-05-15T21:32:23.585Z,36.39
2019-05-15T21:34:55.214Z,36.06
2019-05-15T21:37:30.411Z,36.72
2019-05-15T21:40:02.171Z,36.81
2019-05-15T21:42:33.784Z,37.19
2019-05-15T21:45:13.629Z,37.39
2019-05-15T21:47:42.427Z,37.43
2019-05-15T21:50:15.368Z,37.61
2019-05-15T21:52:49.391Z,38.11
2019-05-15T21:55:22.017Z,38.11
2019-05-15T21:57:54.005Z,38.36
2019-05-15T22:00:38.281Z,38.39
2019-05-15T22:03:14.704Z,38.47
2019-05-15T22:05:48.686Z,38.41
2019-05-15T22:08:20.272Z,38.84
2019-05-15T22:10:53.170Z,38.32
2019-05-15T22:13:24.942Z,38.81
2019-05-15T22:15:59.219Z,39.17
2019-05-15T22:18:30.265Z,39.17
2019-05-15T22:21:02.367Z,39.03
2019-05-15T22:23:34.083Z,38.94
2019-05-15T22:26:06.421Z,38.94
2019-05-15T22:28:41.420Z,39.52
2019-05-15T22:31:13.536Z,39.26
2019-05-15T22:33:47.814Z,39.65
2019-05-15T22:36:19.185Z,39.93
2019-05-15T22:38:51.379Z,39.93
2019-05-15T22:41:23.218Z,39.98
2019-05-15T22:43:55.058Z,39.38
2019-05-15T22:46:28.871Z,39.61
2019-05-15T22:49:01.807Z,39.72
2019-05-15T22:51:33.896Z,39.95
2019-05-15T22:54:05.870Z,40.03
2019-05-15T22:56:38.314Z,40.03
2019-05-15T22:59:09.948Z,40.47
2019-05-15T23:01:41.903Z,40.01
2019-05-15T23:04:14.019Z,40.17
2019-05-15T23:06:45.913Z,40.05
2019-05-15T23:09:17.886Z,40.35
2019-05-15T23:11:49.697Z,40.35
2019-05-15T23:14:21.514Z,39.93
2019-05-15T23:16:53.395Z,39.93
2019-05-15T23:19:25.184Z,40.58
2019-05-15T23:21:59.074Z,41.26
2019-05-15T23:24:31.730Z,41.26
2019-05-15T23:27:03.780Z,40.90
2019-05-15T23:29:35.659Z,41.44
2019-05-15T23:32:07.819Z,40.72
2019-05-15T23:34:39.917Z,40.73
2019-05-15T23:37:11.824Z,40.73
2019-05-15T23:39:43.605Z,40.64
2019-05-15T23:42:18.283Z,41.16
2019-05-15T23:44:50.004Z,41.16
2019-05-15T23:47:21.891Z,41.44
2019-05-15T23:49:53.615Z,41.79
2019-05-15T23:52:25.478Z,41.20
2019-05-15T23:54:58.953Z,41.46
2019-05-15T23:57:31.659Z,41.46
